createdAt,value
2019-02-25T00:02:56.346Z,22.56
2019-02-25T00:13:02.116Z,22.50
2019-02-25T00:23:07.874Z,22.50
2019-02-25T00:33:13.735Z,22.56
2019-02-25T00:43:19.583Z,22.44
2019-02-25T00:53:25.472Z,22.50
2019-02-25T01:03:31.375Z,22.37
2019-02-25T01:13:37.347Z,22.50
2019-02-25T01:23:43.121Z,22.44
2019-02-25T01:33:49.156Z,22.37
2019-02-25T01:43:54.910Z,22.50
2019-02-25T01:53:59.928Z,22.56
2019-02-25T02:04:05.733Z,22.50
2019-02-25T02:14:11.776Z,22.37
2019-02-25T02:24:17.695Z,22.50
2019-02-25T02:34:23.654Z,22.44
2019-02-25T02:44:29.482Z,22.50
2019-02-25T02:54:35.271Z,22.31
2019-02-25T03:04:41.036Z,22.44
2019-02-25T03:14:46.820Z,22.44
2019-02-25T03:24:52.647Z,22.31
2019-02-25T03:34:58.413Z,22.44
2019-02-25T03:45:05.809Z,22.37
2019-02-25T03:55:18.675Z,22.44
2019-02-25T04:05:24.612Z,22.50
2019-02-25T04:15:32.094Z,22.37
2019-02-25T04:25:37.937Z,22.37
2019-02-25T04:35:42.958Z,22.50
2019-02-25T04:45:48.671Z,22.50
2019-02-25T04:55:54.669Z,22.37
2019-02-25T05:06:00.469Z,22.44
2019-02-25T05:16:06.413Z,22.56
2019-02-25T05:26:12.202Z,22.62
2019-02-25T05:36:17.992Z,22.56
2019-02-25T05:46:22.990Z,22.56
2019-02-25T05:56:28.680Z,22.69
2019-02-25T06:06:35.047Z,22.69
2019-02-25T06:16:40.908Z,22.75
2019-02-25T06:26:46.685Z,22.62
2019-02-25T06:36:52.583Z,22.62
2019-02-25T06:46:58.361Z,22.62
2019-02-25T06:57:04.186Z,22.50
2019-02-25T07:07:17.592Z,22.50
2019-02-25T07:17:34.290Z,22.62
2019-02-25T07:27:50.439Z,22.44
2019-02-25T07:38:08.953Z,22.50
2019-02-25T07:48:31.575Z,22.69
2019-02-25T07:58:47.533Z,22.56
2019-02-25T08:08:54.968Z,22.69
2019-02-25T08:19:04.276Z,22.62
2019-02-25T08:29:26.494Z,22.75
2019-02-25T08:39:36.947Z,22.69
2019-02-25T08:49:47.548Z,22.75
2019-02-25T08:59:53.436Z,22.69
2019-02-25T09:09:59.344Z,22.75
2019-02-25T09:20:06.294Z,22.62
2019-02-25T09:30:18.379Z,22.69
2019-02-25T09:40:24.274Z,22.81
2019-02-25T09:50:30.321Z,22.87
2019-02-25T10:00:35.591Z,22.94
2019-02-25T10:10:41.355Z,22.94
2019-02-25T10:20:48.607Z,23.06
2019-02-25T10:30:53.675Z,23.06
2019-02-25T10:40:59.547Z,23.25
2019-02-25T10:51:07.128Z,23.38
2019-02-25T11:01:17.591Z,23.87
2019-02-25T11:11:23.207Z,24.12
2019-02-25T11:21:29.978Z,24.00
2019-02-25T11:31:35.885Z,21.56
2019-02-25T11:41:41.766Z,23.19
2019-02-25T11:51:46.726Z,23.50
2019-02-25T12:01:52.608Z,23.50
2019-02-25T12:11:58.570Z,23.69
2019-02-25T12:22:04.492Z,23.62
2019-02-25T12:32:10.465Z,23.69
2019-02-25T12:42:16.480Z,23.50
2019-02-25T12:52:22.475Z,23.19
2019-02-25T13:02:28.239Z,23.25
2019-02-25T13:12:34.250Z,23.31
2019-02-25T13:22:40.552Z,23.38
2019-02-25T13:32:46.519Z,23.38
2019-02-25T13:42:52.398Z,23.25
2019-02-25T13:52:58.396Z,23.25
2019-02-25T14:03:03.496Z,23.44
2019-02-25T14:13:08.479Z,23.31
2019-02-25T14:23:13.381Z,23.44
2019-02-25T14:33:18.466Z,23.44
2019-02-25T14:43:25.455Z,23.31
2019-02-25T14:53:31.994Z,23.25
2019-02-25T15:03:38.949Z,23.25
2019-02-25T15:13:45.054Z,23.12
2019-02-25T15:23:50.984Z,23.06
2019-02-25T15:33:57.066Z,22.94
2019-02-25T15:44:04.808Z,23.06
2019-02-25T15:54:11.448Z,23.06
2019-02-25T16:04:17.410Z,23.06
2019-02-25T16:14:23.998Z,23.00
2019-02-25T16:24:31.080Z,23.12
2019-02-25T16:34:38.238Z,23.19
2019-02-25T16:44:45.701Z,23.31
2019-02-25T16:54:51.637Z,23.31
2019-02-25T17:04:57.655Z,23.31
2019-02-25T17:15:03.687Z,23.31
2019-02-25T17:25:12.155Z,23.31
2019-02-25T17:35:21.457Z,23.31
2019-02-25T17:45:34.383Z,23.44
2019-02-25T17:55:39.842Z,23.38
2019-02-25T18:05:45.702Z,23.56
2019-02-25T18:15:53.512Z,23.25
2019-02-25T18:25:58.852Z,23.19
2019-02-25T18:36:06.663Z,23.44
2019-02-25T18:46:12.657Z,23.25
2019-02-25T18:56:18.976Z,23.31
2019-02-25T19:06:29.242Z,23.19
2019-02-25T19:16:36.034Z,23.00
2019-02-25T19:26:44.566Z,23.06
2019-02-25T19:36:50.268Z,23.00
2019-02-25T19:46:56.411Z,22.94
2019-02-25T19:57:02.436Z,23.06
2019-02-25T20:07:09.460Z,22.87
2019-02-25T20:17:16.955Z,22.94
2019-02-25T20:27:22.915Z,22.87
2019-02-25T20:37:29.372Z,22.75
2019-02-25T20:47:35.945Z,22.87
2019-02-25T20:57:41.956Z,22.87
2019-02-25T21:07:48.281Z,22.69
2019-02-25T21:17:59.311Z,22.69
2019-02-25T21:28:06.693Z,22.87
2019-02-25T21:38:12.421Z,22.94
2019-02-25T21:48:21.172Z,22.87
2019-02-25T21:58:27.732Z,22.81
2019-02-25T22:08:36.102Z,22.75
2019-02-25T22:18:40.711Z,22.81
2019-02-25T22:28:46.556Z,22.56
2019-02-25T22:38:51.619Z,22.62
2019-02-25T22:48:56.573Z,22.50
2019-02-25T22:59:02.801Z,22.56
2019-02-25T23:09:14.117Z,22.50
2019-02-25T23:19:20.136Z,22.56
2019-02-25T23:29:28.243Z,22.62
2019-02-25T23:39:36.031Z,22.56
2019-02-25T23:49:41.453Z,22.50
2019-02-25T23:59:48.875Z,22.56
